JBU137 KJFK-MDST
Flight info
| Callsign | JBU137 |
|---|---|
| Flight time | N/A |
| Altitude | 37000 |
| Route | ROLLE ATUGI L454 LUCTI/N0459F370 L454 MNDEZ SEKAR SEKAR2P |
| Aircraft | A21N/M-SDE2E3FGHIRWXY/LB1 |
Departure
| Time | N/A |
|---|---|
| Airport | John F. Kennedy International Airport (KJFK) |
Arrival
| Time | 2026-05-07 20:06 |
|---|---|
| Airport | Cibao International Airport (MDST) |
| Time | Latitude | Longitude | Altitude | Speed | Heading |
|---|---|---|---|---|---|
| 2026-05-07 19:47 | 19.60391 | -70.63398 | 7186 ft | 273 kts | 257° |
| 2026-05-07 19:47 | 19.60024 | -70.65386 | 6832 ft | 274 kts | 256° |
| 2026-05-07 19:48 | 19.59515 | -70.67361 | 6542 ft | 277 kts | 251° |
| 2026-05-07 19:48 | 19.58834 | -70.69246 | 6278 ft | 275 kts | 245° |
| 2026-05-07 19:48 | 19.57959 | -70.71059 | 6010 ft | 274 kts | 239° |
| 2026-05-07 19:48 | 19.56956 | -70.72746 | 5743 ft | 272 kts | 233° |
| 2026-05-07 19:49 | 19.55802 | -70.74298 | 5491 ft | 262 kts | 228° |
| 2026-05-07 19:49 | 19.54564 | -70.75680 | 5262 ft | 255 kts | 222° |
| 2026-05-07 19:49 | 19.53216 | -70.76936 | 5029 ft | 255 kts | 216° |
| 2026-05-07 19:49 | 19.51809 | -70.78024 | 4771 ft | 247 kts | 211° |
| 2026-05-07 19:50 | 19.50380 | -70.78947 | 4481 ft | 232 kts | 207° |
| 2026-05-07 19:50 | 19.48968 | -70.79675 | 4280 ft | 217 kts | 203° |
| 2026-05-07 19:50 | 19.47536 | -70.80085 | 4143 ft | 210 kts | 178° |
| 2026-05-07 19:50 | 19.46248 | -70.79546 | 3917 ft | 202 kts | 136° |
| 2026-05-07 19:51 | 19.45381 | -70.78377 | 3747 ft | 203 kts | 125° |
| 2026-05-07 19:51 | 19.44438 | -70.77249 | 3535 ft | 203 kts | 130° |
| 2026-05-07 19:51 | 19.43782 | -70.75983 | 3282 ft | 195 kts | 105° |
| 2026-05-07 19:51 | 19.43533 | -70.74603 | 2966 ft | 189 kts | 100° |
| 2026-05-07 19:52 | 19.43335 | -70.73258 | 2647 ft | 182 kts | 99° |
| 2026-05-07 19:52 | 19.43127 | -70.71968 | 2333 ft | 171 kts | 101° |
| 2026-05-07 19:52 | 19.42881 | -70.70738 | 2173 ft | 171 kts | 100° |
| 2026-05-07 19:52 | 19.42609 | -70.69502 | 1945 ft | 171 kts | 104° |
| 2026-05-07 19:53 | 19.42337 | -70.68325 | 1718 ft | 158 kts | 104° |
| 2026-05-07 19:53 | 19.42109 | -70.67240 | 1496 ft | 145 kts | 102° |
| 2026-05-07 19:53 | 19.41876 | -70.66225 | 1345 ft | 141 kts | 106° |
| 2026-05-07 19:53 | 19.41648 | -70.65204 | 1201 ft | 142 kts | 103° |
| 2026-05-07 19:54 | 19.41427 | -70.64177 | 1059 ft | 141 kts | 105° |
| 2026-05-07 19:54 | 19.41196 | -70.63168 | 890 ft | 141 kts | 104° |
| 2026-05-07 19:54 | 19.40958 | -70.62157 | 1112 ft | 145 kts | 102° |
| 2026-05-07 19:54 | 19.40722 | -70.61154 | 1829 ft | 143 kts | 102° |
| 2026-05-07 19:55 | 19.40377 | -70.60199 | 2528 ft | 147 kts | 130° |
| 2026-05-07 19:55 | 19.39452 | -70.59712 | 3128 ft | 162 kts | 175° |
| 2026-05-07 19:55 | 19.38331 | -70.60078 | 3743 ft | 182 kts | 218° |
| 2026-05-07 19:55 | 19.37652 | -70.61227 | 4258 ft | 195 kts | 256° |
| 2026-05-07 19:56 | 19.37761 | -70.62694 | 4587 ft | 211 kts | 288° |
| 2026-05-07 19:56 | 19.38241 | -70.64223 | 4924 ft | 226 kts | 286° |
| 2026-05-07 19:56 | 19.38941 | -70.65786 | 5238 ft | 242 kts | 296° |
| 2026-05-07 19:56 | 19.39743 | -70.67416 | 5558 ft | 256 kts | 297° |
| 2026-05-07 19:57 | 19.40579 | -70.69064 | 5919 ft | 250 kts | 297° |
| 2026-05-07 19:57 | 19.41415 | -70.70657 | 6035 ft | 250 kts | 298° |
| 2026-05-07 19:57 | 19.42270 | -70.72242 | 6034 ft | 247 kts | 298° |
| 2026-05-07 19:57 | 19.43098 | -70.73849 | 6029 ft | 246 kts | 299° |
| 2026-05-07 19:58 | 19.43876 | -70.75473 | 6026 ft | 247 kts | 297° |
| 2026-05-07 19:58 | 19.44671 | -70.77072 | 6038 ft | 246 kts | 298° |
| 2026-05-07 19:58 | 19.45486 | -70.78665 | 6019 ft | 239 kts | 297° |
| 2026-05-07 19:58 | 19.46287 | -70.80163 | 6026 ft | 230 kts | 299° |
| 2026-05-07 19:59 | 19.46999 | -70.81678 | 5987 ft | 228 kts | 292° |
| 2026-05-07 19:59 | 19.47268 | -70.83269 | 6024 ft | 219 kts | 269° |
| 2026-05-07 19:59 | 19.47237 | -70.84883 | 6097 ft | 218 kts | 259° |
| 2026-05-07 19:59 | 19.46543 | -70.86258 | 6038 ft | 212 kts | 222° |
| 2026-05-07 20:00 | 19.45276 | -70.86984 | 6015 ft | 207 kts | 188° |
| 2026-05-07 20:00 | 19.43879 | -70.86795 | 6017 ft | 204 kts | 155° |
| 2026-05-07 20:00 | 19.42824 | -70.85827 | 6024 ft | 204 kts | 122° |
| 2026-05-07 20:00 | 19.42459 | -70.84387 | 5960 ft | 206 kts | 89° |
| 2026-05-07 20:01 | 19.42967 | -70.82973 | 5774 ft | 211 kts | 54° |
| 2026-05-07 20:01 | 19.44122 | -70.81999 | 5284 ft | 217 kts | 33° |
| 2026-05-07 20:01 | 19.45289 | -70.80976 | 4659 ft | 220 kts | 56° |
| 2026-05-07 20:01 | 19.45771 | -70.79507 | 4016 ft | 215 kts | 88° |
| 2026-05-07 20:02 | 19.45374 | -70.78030 | 3433 ft | 207 kts | 119° |
| 2026-05-07 20:02 | 19.44669 | -70.76736 | 3103 ft | 196 kts | 120° |
| 2026-05-07 20:02 | 19.44103 | -70.75511 | 2893 ft | 177 kts | 112° |
| 2026-05-07 20:02 | 19.43706 | -70.74311 | 2722 ft | 171 kts | 108° |
| 2026-05-07 20:03 | 19.43393 | -70.73123 | 2552 ft | 157 kts | 105° |
| 2026-05-07 20:03 | 19.43163 | -70.72063 | 2348 ft | 143 kts | 104° |
| 2026-05-07 20:03 | 19.42945 | -70.71034 | 2178 ft | 142 kts | 106° |
| 2026-05-07 20:03 | 19.42718 | -70.70016 | 2007 ft | 143 kts | 104° |
| 2026-05-07 20:04 | 19.42471 | -70.68992 | 1845 ft | 144 kts | 105° |
| 2026-05-07 20:04 | 19.42263 | -70.67948 | 1689 ft | 143 kts | 104° |
| 2026-05-07 20:04 | 19.42052 | -70.66919 | 1551 ft | 143 kts | 105° |
| 2026-05-07 20:04 | 19.41791 | -70.65906 | 1383 ft | 143 kts | 103° |
| 2026-05-07 20:05 | 19.41599 | -70.64874 | 1226 ft | 143 kts | 108° |
| 2026-05-07 20:05 | 19.41359 | -70.63855 | 1047 ft | 142 kts | 104° |
| 2026-05-07 20:05 | 19.41131 | -70.62846 | 859 ft | 141 kts | 107° |
| 2026-05-07 20:05 | 19.40913 | -70.61829 | 681 ft | 140 kts | 107° |
| 2026-05-07 20:06 | 19.40696 | -70.60883 | 614 ft | 109 kts | 105° |
| 2026-05-07 20:06 | 19.40556 | -70.60244 | 621 ft | 67 kts | 103° |
| 2026-05-07 20:06 | 19.40476 | -70.59868 | 627 ft | 36 kts | 101° |
| 2026-05-07 20:06 | 19.40442 | -70.59709 | 631 ft | 10 kts | 95° |
| 2026-05-07 20:07 | 19.40429 | -70.59656 | 635 ft | 5 kts | 201° |
| 2026-05-07 20:07 | 19.40436 | -70.59696 | 635 ft | 6 kts | 296° |
| 2026-05-07 20:07 | 19.40447 | -70.59737 | 636 ft | 5 kts | 283° |
| 2026-05-07 20:07 | 19.40456 | -70.59778 | 637 ft | 6 kts | 283° |
| 2026-05-07 20:08 | 19.40467 | -70.59825 | 638 ft | 7 kts | 284° |
| 2026-05-07 20:08 | 19.40480 | -70.59882 | 638 ft | 9 kts | 283° |
| 2026-05-07 20:08 | 19.40487 | -70.59956 | 638 ft | 11 kts | 245° |
| 2026-05-07 20:08 | 19.40407 | -70.59990 | 637 ft | 13 kts | 192° |
| 2026-05-07 20:09 | 19.40367 | -70.60001 | 636 ft | 0 kts | 194° |
| 2026-05-07 20:09 | 19.40364 | -70.60001 | 636 ft | 1 kts | 194° |
| 2026-05-07 20:09 | 19.40344 | -70.60006 | 635 ft | 4 kts | 194° |
| 2026-05-07 20:10 | 19.40319 | -70.60004 | 635 ft | 2 kts | 133° |
| 2026-05-07 20:10 | 19.40312 | -70.59979 | 635 ft | 4 kts | 102° |
| 2026-05-07 20:10 | 19.40305 | -70.59947 | 635 ft | 4 kts | 103° |
| 2026-05-07 20:10 | 19.40282 | -70.59934 | 634 ft | 5 kts | 185° |
| 2026-05-07 20:11 | 19.40244 | -70.59943 | 633 ft | 4 kts | 192° |
| 2026-05-07 20:11 | 19.40219 | -70.59949 | 633 ft | 2 kts | 192° |
| 2026-05-07 20:11 | 19.40215 | -70.59950 | 633 ft | 0 kts | 194° |